Time;durP1;ratioP1;P1;durP2;ratioP2;P2;SDS_P1;SDS_P2;PMS_P1;PMS_P2;Temp;Humidity;BMP_temperature;BMP_pressure;BME280_temperature;BME280_humidity;BME280_pressure;Samples;Min_cycle;Max_cycle;Signal;HPM_P1;HPM_P2
2023/09/30 00:01:11;;;;;;;1.27;0.82;;;;;;;18.23;61.60;100385.81;4965126;28;20114;-75
2023/09/30 00:03:41;;;;;;;4.28;0.90;;;;;;;18.22;63.71;100391.94;4965459;28;20074;-80
2023/09/30 00:06:10;;;;;;;3.17;1.13;;;;;;;18.18;65.45;100384.97;4970772;28;20134;-79
2023/09/30 00:08:39;;;;;;;1.30;0.80;;;;;;;18.11;64.41;100378.91;4967682;28;20131;-81
2023/09/30 00:11:08;;;;;;;4.95;1.15;;;;;;;18.17;65.52;100389.38;4970080;28;20101;-82
2023/09/30 00:13:38;;;;;;;1.58;0.88;;;;;;;18.10;64.15;100387.66;4972236;28;20047;-79
2023/09/30 00:16:08;;;;;;;1.75;0.90;;;;;;;18.10;66.15;100392.03;4974091;28;20054;-80
2023/09/30 00:18:37;;;;;;;1.05;0.73;;;;;;;18.08;65.39;100392.03;4976158;28;20113;-79
2023/09/30 00:21:06;;;;;;;1.80;1.17;;;;;;;18.00;65.76;100388.59;4964051;28;20046;-78
2023/09/30 00:23:34;;;;;;;1.65;0.60;;;;;;;17.94;64.00;100391.28;4966085;28;20047;-77
2023/09/30 00:26:03;;;;;;;1.40;0.82;;;;;;;17.92;63.53;100390.41;4964407;28;20085;-77
2023/09/30 00:28:31;;;;;;;3.95;1.08;;;;;;;17.88;63.55;100389.56;4972318;28;20075;-77
2023/09/30 00:31:00;;;;;;;2.78;1.17;;;;;;;17.87;63.49;100389.59;4965069;28;20051;-75
2023/09/30 00:33:31;;;;;;;2.30;1.38;;;;;;;17.84;63.17;100398.28;4968583;28;20051;-76
2023/09/30 00:35:59;;;;;;;2.25;1.38;;;;;;;17.80;61.94;100394.81;4966886;28;20096;-76
2023/09/30 00:38:28;;;;;;;4.28;1.10;;;;;;;17.80;63.20;100407.03;4966749;28;20053;-76
2023/09/30 00:40:57;;;;;;;3.22;1.27;;;;;;;17.75;63.35;100400.94;4970726;28;20074;-77
2023/09/30 00:43:25;;;;;;;1.88;0.93;;;;;;;17.73;63.18;100402.69;4966514;28;20074;-76
2023/09/30 00:46:00;;;;;;;1.95;1.10;;;;;;;17.70;63.39;100402.72;4976091;28;20054;-77
2023/09/30 00:48:30;;;;;;;1.88;1.33;;;;;;;17.65;64.84;100405.34;4962406;28;20051;-78
2023/09/30 00:51:07;;;;;;;4.15;1.40;;;;;;;17.59;64.08;100408.88;4972127;28;20106;-77
2023/09/30 00:53:36;;;;;;;7.93;1.98;;;;;;;17.56;66.19;100410.63;4972553;28;20042;-76
2023/09/30 00:56:05;;;;;;;3.05;1.20;;;;;;;17.55;70.25;100409.78;4966402;28;20058;-78
2023/09/30 00:58:39;;;;;;;2.58;1.42;;;;;;;17.54;70.20;100407.16;4964646;28;20571;-77
2023/09/30 01:01:09;;;;;;;3.30;1.20;;;;;;;17.54;70.03;100410.63;4963370;28;20058;-77
2023/09/30 01:03:39;;;;;;;4.70;1.55;;;;;;;17.44;69.38;100408.09;4972438;28;20097;-77
2023/09/30 01:06:09;;;;;;;2.13;1.10;;;;;;;17.48;71.57;100408.06;4967109;28;20663;-76
2023/09/30 01:08:38;;;;;;;2.60;1.33;;;;;;;17.49;71.69;100414.16;4970907;28;20452;-75
2023/09/30 01:11:08;;;;;;;1.77;1.00;;;;;;;17.44;71.47;100408.94;4965488;28;20047;-75
2023/09/30 01:13:37;;;;;;;2.50;1.10;;;;;;;17.44;70.94;100414.19;4970422;28;20047;-76
2023/09/30 01:16:09;;;;;;;4.15;1.45;;;;;;;17.44;70.23;100418.53;4972024;28;20539;-75
2023/09/30 01:18:42;;;;;;;2.53;1.08;;;;;;;17.44;71.63;100415.94;4968361;28;20077;-75
2023/09/30 01:21:12;;;;;;;1.10;0.90;;;;;;;17.43;75.20;100425.53;4971907;28;20066;-75
2023/09/30 01:23:43;;;;;;;3.95;1.23;;;;;;;17.41;74.71;100419.44;4961730;28;20094;-76
2023/09/30 01:26:13;;;;;;;4.00;1.25;;;;;;;17.41;73.78;100410.69;4964341;28;20047;-75
2023/09/30 01:28:43;;;;;;;1.15;1.00;;;;;;;17.38;72.10;100415.09;4967584;28;20481;-76
2023/09/30 01:31:12;;;;;;;1.90;1.10;;;;;;;17.35;72.38;100414.22;4964278;28;20055;-75
2023/09/30 01:33:40;;;;;;;2.03;1.20;;;;;;;17.35;72.58;100412.47;4959049;28;20086;-77
2023/09/30 01:36:09;;;;;;;2.55;1.48;;;;;;;17.32;72.01;100417.72;4967330;28;20050;-76
2023/09/30 01:38:37;;;;;;;3.60;1.30;;;;;;;17.29;73.01;100416.84;4964004;28;20572;-75
2023/09/30 01:41:08;;;;;;;2.38;1.30;;;;;;;17.26;72.49;100412.50;4963701;28;20138;-76
2023/09/30 01:43:37;;;;;;;4.93;1.48;;;;;;;17.21;71.52;100405.56;4964356;28;20568;-75
2023/09/30 01:46:06;;;;;;;2.50;1.30;;;;;;;17.19;70.43;100405.56;4962172;28;20055;-75
2023/09/30 01:48:35;;;;;;;2.63;1.33;;;;;;;17.21;71.00;100411.66;4966074;28;20607;-75
2023/09/30 01:51:03;;;;;;;6.13;1.63;;;;;;;17.20;71.65;100415.13;4959288;28;20532;-76
2023/09/30 01:53:34;;;;;;;2.20;1.50;;;;;;;17.17;71.83;100416.00;4961053;28;20134;-75
2023/09/30 01:56:03;;;;;;;3.40;1.42;;;;;;;17.14;71.56;100415.16;4962981;28;20047;-76
2023/09/30 01:58:34;;;;;;;2.75;1.27;;;;;;;17.11;71.07;100417.75;4968358;28;20087;-76
2023/09/30 02:01:04;;;;;;;2.25;1.38;;;;;;;17.09;70.43;100414.31;4966038;28;20061;-76
2023/09/30 02:03:33;;;;;;;3.78;1.48;;;;;;;17.05;70.57;100407.34;4965507;28;20056;-77
2023/09/30 02:06:03;;;;;;;3.00;1.48;;;;;;;17.02;72.21;100412.56;4964130;28;20061;-75
2023/09/30 02:08:32;;;;;;;3.47;1.52;;;;;;;17.00;71.67;100414.34;4970298;28;20172;-75
2023/09/30 02:11:00;;;;;;;3.72;2.00;;;;;;;16.92;72.20;100404.75;4964711;28;20047;-77
2023/09/30 02:13:29;;;;;;;4.05;1.40;;;;;;;16.93;72.83;100405.63;4970238;28;20050;-75
2023/09/30 02:15:59;;;;;;;3.72;1.52;;;;;;;16.88;72.62;100408.25;4965952;28;20067;-76
2023/09/30 02:18:28;;;;;;;3.92;1.55;;;;;;;16.83;72.87;100404.75;4970900;28;20059;-75
2023/09/30 02:20:56;;;;;;;4.55;1.67;;;;;;;16.76;71.59;100403.00;4960749;28;20051;-76
2023/09/30 02:23:25;;;;;;;3.17;1.80;;;;;;;16.81;71.01;100414.34;4960797;28;20504;-76
2023/09/30 02:25:53;;;;;;;3.10;1.95;;;;;;;16.76;70.26;100416.94;4967952;28;20112;-75
2023/09/30 02:28:25;;;;;;;1.98;1.40;;;;;;;16.76;70.80;100414.31;4961168;28;20058;-76
2023/09/30 02:30:54;;;;;;;2.67;1.50;;;;;;;16.73;71.81;100410.84;4949918;28;20054;-76
2023/09/30 02:33:25;;;;;;;4.43;1.98;;;;;;;16.70;70.81;100416.94;4964353;28;20288;-76
2023/09/30 02:35:54;;;;;;;3.95;1.73;;;;;;;16.66;71.69;100415.22;4958725;28;20058;-73
2023/09/30 02:38:22;;;;;;;13.43;1.90;;;;;;;16.65;75.46;100423.03;4960864;28;20058;-74
2023/09/30 02:40:51;;;;;;;2.85;1.70;;;;;;;16.61;72.16;100416.97;4966277;28;20057;-75
2023/09/30 02:43:20;;;;;;;3.30;1.98;;;;;;;16.59;70.95;100423.06;4963111;28;20740;-75
2023/09/30 02:45:50;;;;;;;2.33;1.73;;;;;;;16.58;71.34;100426.53;4965180;28;20046;-74
2023/09/30 02:48:18;;;;;;;3.50;1.90;;;;;;;16.57;71.15;100419.56;4962992;28;20061;-74
2023/09/30 02:50:53;;;;;;;1.88;1.17;;;;;;;16.54;71.45;100421.31;4959443;28;20117;-74
2023/09/30 02:53:22;;;;;;;3.25;1.50;;;;;;;16.53;72.27;100430.00;4960423;28;20051;-74
2023/09/30 02:55:55;;;;;;;2.58;1.40;;;;;;;16.54;71.29;100430.91;4968805;28;20078;-73
2023/09/30 02:58:24;;;;;;;3.92;1.67;;;;;;;16.53;69.70;100445.69;4970325;28;20050;-75
2023/09/30 03:00:53;;;;;;;3.75;1.20;;;;;;;16.54;72.44;100437.00;4962030;28;20129;-73
2023/09/30 03:03:22;;;;;;;3.38;1.63;;;;;;;16.54;76.77;100436.13;4963158;28;20087;-73
2023/09/30 03:05:52;;;;;;;4.63;1.55;;;;;;;16.52;76.35;100438.72;4964555;28;20725;-73
2023/09/30 03:08:22;;;;;;;3.72;1.98;;;;;;;16.49;76.46;100443.06;4967756;28;20070;-74
2023/09/30 03:10:51;;;;;;;3.20;1.55;;;;;;;16.44;75.83;100440.44;4960261;28;20062;-73
2023/09/30 03:13:21;;;;;;;2.10;1.40;;;;;;;16.41;73.05;100445.69;4957457;28;20062;-74
2023/09/30 03:15:52;;;;;;;2.97;1.20;;;;;;;16.39;70.92;100442.19;4968220;28;20058;-74
2023/09/30 03:18:26;;;;;;;2.22;1.42;;;;;;;16.38;73.64;100444.78;4963921;28;20058;-74
2023/09/30 03:21:01;;;;;;;3.22;1.45;;;;;;;16.35;70.85;100450.88;4961833;28;20090;-73
2023/09/30 03:23:30;;;;;;;2.47;1.42;;;;;;;16.29;73.31;100443.06;4957784;28;20138;-74
2023/09/30 03:25:59;;;;;;;2.53;1.35;;;;;;;16.29;76.62;100448.28;4962695;28;20046;-74
2023/09/30 03:28:28;;;;;;;3.85;1.60;;;;;;;16.25;73.62;100449.16;4966351;28;20519;-77
2023/09/30 03:31:00;;;;;;;5.68;1.80;;;;;;;16.23;78.57;100451.75;4958399;28;20051;-77
2023/09/30 03:33:29;;;;;;;2.28;1.60;;;;;;;16.19;81.60;100455.22;4967665;28;20089;-78
2023/09/30 03:35:59;;;;;;;3.35;1.48;;;;;;;16.08;79.83;100451.72;4966029;28;20066;-76
2023/09/30 03:38:29;;;;;;;3.08;1.98;;;;;;;16.04;82.62;100450.84;4955917;28;20532;-76
2023/09/30 03:40:58;;;;;;;3.25;1.90;;;;;;;15.99;85.11;100457.81;4955168;28;20055;-77
2023/09/30 03:43:27;;;;;;;3.10;1.58;;;;;;;15.88;83.12;100455.16;4960812;28;20058;-78
2023/09/30 03:45:57;;;;;;;1.77;1.23;;;;;;;15.80;84.65;100462.06;4955490;28;20055;-77
2023/09/30 03:48:26;;;;;;;3.25;1.75;;;;;;;15.75;88.06;100470.78;4963674;28;20549;-77
2023/09/30 03:50:55;;;;;;;2.25;1.60;;;;;;;15.66;89.86;100472.44;4955855;28;20058;-78
2023/09/30 03:53:26;;;;;;;4.07;1.83;;;;;;;15.58;91.11;100466.31;4959599;28;20546;-77
2023/09/30 03:55:55;;;;;;;5.07;1.95;;;;;;;15.53;92.89;100472.38;4959447;28;20170;-76
2023/09/30 03:58:23;;;;;;;3.03;1.75;;;;;;;15.43;91.01;100471.47;4968948;28;20078;-75
2023/09/30 04:00:52;;;;;;;4.38;1.90;;;;;;;15.39;94.29;100467.97;4964106;28;20165;-75
2023/09/30 04:03:22;;;;;;;4.57;1.58;;;;;;;15.32;87.09;100474.00;4955070;28;20047;-75
2023/09/30 04:05:51;;;;;;;3.83;1.70;;;;;;;15.27;93.00;100480.94;4952138;28;20127;-75
2023/09/30 04:08:22;;;;;;;6.30;2.22;;;;;;;15.20;94.77;100482.63;4959212;28;20096;-75
2023/09/30 04:10:52;;;;;;;7.68;2.08;;;;;;;15.15;95.36;100473.91;4963624;28;20047;-75
2023/09/30 04:13:21;;;;;;;6.97;1.98;;;;;;;15.11;96.28;100477.34;4961488;28;20144;-75
2023/09/30 04:15:50;;;;;;;3.78;1.73;;;;;;;15.08;98.36;100474.75;4964137;28;20050;-77
2023/09/30 04:18:21;;;;;;;3.05;1.80;;;;;;;15.02;97.67;100475.56;4946798;28;20122;-77
2023/09/30 04:20:51;;;;;;;2.40;1.50;;;;;;;14.95;94.44;100472.91;4948020;28;20074;-77
2023/09/30 04:23:21;;;;;;;4.45;2.20;;;;;;;14.91;96.14;100479.81;4945014;28;20047;-76
2023/09/30 04:25:52;;;;;;;4.22;1.85;;;;;;;14.87;97.78;100478.94;4948281;28;20051;-76
2023/09/30 04:28:21;;;;;;;3.15;1.98;;;;;;;14.84;99.14;100485.84;4942736;28;20134;-77
2023/09/30 04:30:51;;;;;;;7.30;2.22;;;;;;;14.77;98.58;100476.25;4939617;28;20054;-77
2023/09/30 04:33:21;;;;;;;4.32;1.98;;;;;;;14.74;100.00;100474.50;4937107;28;20051;-76
2023/09/30 04:35:52;;;;;;;6.60;2.00;;;;;;;14.71;100.00;100479.69;4945236;28;20048;-78
2023/09/30 04:38:20;;;;;;;4.95;2.08;;;;;;;14.72;100.00;100478.81;4939226;28;20141;-77
2023/09/30 04:40:51;;;;;;;4.88;2.08;;;;;;;14.65;100.00;100467.47;4945507;28;20067;-77
2023/09/30 04:43:21;;;;;;;3.22;1.98;;;;;;;14.72;100.00;100490.97;4942840;28;20059;-77
2023/09/30 04:45:53;;;;;;;3.53;1.80;;;;;;;14.67;100.00;100488.31;4949706;28;20051;-76
2023/09/30 04:48:22;;;;;;;3.85;1.90;;;;;;;14.62;100.00;100484.81;4947173;28;20047;-77
2023/09/30 04:50:51;;;;;;;6.18;2.17;;;;;;;14.58;100.00;100489.09;4945131;28;20051;-79
2023/09/30 04:53:20;;;;;;;4.57;2.25;;;;;;;14.59;100.00;100489.97;4952107;28;20079;-77
2023/09/30 04:55:49;;;;;;;2.95;1.95;;;;;;;14.60;100.00;100494.34;4947186;28;20050;-78
2023/09/30 04:58:24;;;;;;;5.72;2.42;;;;;;;14.55;100.00;100494.31;4948142;28;20051;-78
2023/09/30 05:00:52;;;;;;;6.32;2.35;;;;;;;14.56;100.00;100495.16;4942641;28;20461;-77
2023/09/30 05:03:21;;;;;;;3.70;2.58;;;;;;;14.55;100.00;100498.63;4952171;28;20413;-77
2023/09/30 05:05:50;;;;;;;9.80;2.28;;;;;;;14.56;100.00;100500.38;4947800;28;20055;-77
2023/09/30 05:08:18;;;;;;;5.28;1.83;;;;;;;14.57;98.15;100502.13;4949561;28;20063;-78
2023/09/30 05:10:49;;;;;;;3.38;2.28;;;;;;;14.58;100.00;100499.53;4947513;28;20047;-75
2023/09/30 05:13:18;;;;;;;9.93;2.13;;;;;;;14.61;100.00;100509.09;4939957;28;20044;-77
2023/09/30 05:15:49;;;;;;;5.93;1.73;;;;;;;14.56;98.50;100495.16;4940901;28;20465;-78
2023/09/30 05:18:30;;;;;;;3.40;2.60;;;;;;;14.57;98.49;100502.13;4962041;28;20154;-78
2023/09/30 05:20:58;;;;;;;7.95;2.35;;;;;;;14.58;99.10;100509.06;4953951;28;20051;-77
2023/09/30 05:23:32;;;;;;;4.40;1.75;;;;;;;14.54;97.03;100494.25;4980024;28;20089;-77
2023/09/30 05:26:01;;;;;;;5.68;1.70;;;;;;;14.55;94.56;100503.84;4960649;28;20065;-76
2023/09/30 05:28:29;;;;;;;3.15;1.50;;;;;;;14.54;93.01;100504.66;4962429;28;20063;-76
2023/09/30 05:31:00;;;;;;;6.25;2.03;;;;;;;14.53;95.51;100505.53;4967480;28;20046;-77
2023/09/30 05:33:28;;;;;;;2.97;2.03;;;;;;;14.52;97.68;100506.38;4965077;28;20590;-77
2023/09/30 05:35:57;;;;;;;4.00;2.25;;;;;;;14.47;91.59;100506.31;4974633;28;20058;-79
2023/09/30 05:38:26;;;;;;;3.78;2.08;;;;;;;14.48;95.76;100509.78;4969022;28;20050;-75
2023/09/30 05:40:54;;;;;;;3.50;1.80;;;;;;;14.45;94.06;100501.13;4966629;28;20055;-78
2023/09/30 05:43:23;;;;;;;4.57;2.40;;;;;;;14.41;91.13;100506.28;4969909;28;20057;-77
2023/09/30 05:45:54;;;;;;;2.33;1.50;;;;;;;14.39;90.35;100508.88;4965967;28;20055;-76
2023/09/30 05:48:24;;;;;;;7.07;2.35;;;;;;;14.40;92.02;100509.72;4967977;28;20058;-76
2023/09/30 05:50:55;;;;;;;7.88;2.20;;;;;;;14.39;92.36;100511.47;4966949;28;20061;-78
2023/09/30 05:53:24;;;;;;;6.35;1.80;;;;;;;14.37;90.58;100515.78;4967373;28;20581;-76
2023/09/30 05:55:53;;;;;;;2.72;1.92;;;;;;;14.36;90.50;100514.06;4967271;28;20065;-77
2023/09/30 05:58:23;;;;;;;3.40;1.90;;;;;;;14.36;92.70;100510.56;4964982;28;20055;-77
2023/09/30 06:00:52;;;;;;;5.05;2.17;;;;;;;14.29;93.76;100501.81;4967985;28;20055;-77
2023/09/30 06:03:22;;;;;;;5.10;1.92;;;;;;;14.31;96.55;100510.50;4964316;28;20054;-76
2023/09/30 06:05:52;;;;;;;3.65;2.45;;;;;;;14.27;91.47;100513.97;4967663;28;20051;-77
2023/09/30 06:08:21;;;;;;;4.22;2.25;;;;;;;14.27;92.98;100503.56;4963164;28;20093;-76
2023/09/30 06:10:50;;;;;;;7.40;2.50;;;;;;;14.29;95.35;100506.16;4965830;28;20121;-77
2023/09/30 06:13:18;;;;;;;8.13;2.58;;;;;;;14.27;94.09;100513.97;4965343;28;20505;-76
2023/09/30 06:15:47;;;;;;;3.60;2.20;;;;;;;14.23;93.79;100501.75;4965233;28;20059;-75
2023/09/30 06:18:16;;;;;;;4.15;2.58;;;;;;;14.24;95.55;100511.31;4965374;28;20497;-76
2023/09/30 06:20:44;;;;;;;4.88;2.58;;;;;;;14.21;96.05;100516.47;4966439;28;20089;-78
2023/09/30 06:23:15;;;;;;;5.65;2.10;;;;;;;14.18;97.28;100512.13;4963217;28;20067;-77
2023/09/30 06:25:44;;;;;;;4.55;2.13;;;;;;;14.14;96.52;100510.34;4967751;28;20050;-76
2023/09/30 06:28:13;;;;;;;4.07;2.40;;;;;;;14.13;96.28;100515.50;4969229;28;20050;-76
2023/09/30 06:30:45;;;;;;;6.68;2.47;;;;;;;14.12;96.47;100516.38;4967388;28;20141;-76
2023/09/30 06:33:15;;;;;;;4.37;1.90;;;;;;;14.10;94.92;100516.34;4968252;28;20071;-78
2023/09/30 06:35:50;;;;;;;4.07;2.45;;;;;;;14.04;92.46;100511.97;4957021;28;20763;-78
2023/09/30 06:38:21;;;;;;;6.45;1.88;;;;;;;14.06;91.71;100513.69;4964710;28;20043;-77
2023/09/30 06:40:49;;;;;;;3.53;2.13;;;;;;;14.04;92.81;100505.88;4965316;28;20437;-77
2023/09/30 06:43:18;;;;;;;3.17;2.13;;;;;;;14.04;93.73;100511.97;4968618;28;20051;-77
2023/09/30 06:45:50;;;;;;;2.85;1.88;;;;;;;14.04;95.00;100516.28;4966181;28;20110;-76
2023/09/30 06:48:19;;;;;;;8.73;3.10;;;;;;;14.03;95.87;100518.00;4962958;28;20142;-77
2023/09/30 06:50:48;;;;;;;5.93;2.20;;;;;;;13.99;94.26;100523.16;4967712;28;20675;-76
2023/09/30 06:53:17;;;;;;;4.18;2.25;;;;;;;13.94;93.13;100525.72;4963614;28;20062;-77
2023/09/30 06:55:47;;;;;;;5.35;2.35;;;;;;;13.93;93.61;100533.53;4969422;28;20515;-76
2023/09/30 06:58:20;;;;;;;4.32;2.25;;;;;;;13.92;92.28;100523.94;4962475;28;20075;-77
2023/09/30 07:00:50;;;;;;;7.40;2.05;;;;;;;13.88;89.39;100519.56;4966307;28;20178;-76
2023/09/30 07:03:19;;;;;;;3.65;2.08;;;;;;;13.84;87.91;100523.88;4965786;28;20050;-76
2023/09/30 07:05:49;;;;;;;3.65;2.25;;;;;;;13.81;90.46;100529.00;4948914;28;20060;-75
2023/09/30 07:08:18;;;;;;;3.92;2.20;;;;;;;13.78;89.71;100519.44;4963631;28;20058;-75
2023/09/30 07:10:52;;;;;;;6.00;2.33;;;;;;;13.77;89.80;100522.91;4967564;28;20073;-75
2023/09/30 07:13:21;;;;;;;7.53;2.60;;;;;;;13.75;89.92;100523.75;4965113;28;20056;-75
2023/09/30 07:15:50;;;;;;;7.88;2.50;;;;;;;13.74;90.92;100522.88;4966502;28;20702;-76
2023/09/30 07:18:19;;;;;;;5.00;2.40;;;;;;;13.76;92.35;100522.88;4964363;28;20050;-76
2023/09/30 07:20:47;;;;;;;4.10;2.40;;;;;;;13.75;95.20;100523.75;4960700;28;20055;-75
2023/09/30 07:23:16;;;;;;;11.90;2.55;;;;;;;13.73;92.94;100530.66;4968112;28;20129;-76
2023/09/30 07:25:44;;;;;;;4.97;2.75;;;;;;;13.71;92.61;100525.44;4967384;28;20109;-75
2023/09/30 07:28:15;;;;;;;5.55;2.25;;;;;;;13.70;93.65;100522.78;4968667;28;20050;-75
2023/09/30 07:30:43;;;;;;;4.32;2.55;;;;;;;13.70;94.17;100531.50;4966623;28;20975;-75
2023/09/30 07:33:12;;;;;;;3.03;1.83;;;;;;;13.69;92.27;100539.25;4969066;28;20456;-76
2023/09/30 07:35:41;;;;;;;4.78;2.50;;;;;;;13.65;90.64;100530.53;4963258;28;20082;-75
2023/09/30 07:38:09;;;;;;;4.30;2.45;;;;;;;13.61;87.89;100531.38;4970451;28;20066;-77
2023/09/30 07:40:38;;;;;;;2.35;1.67;;;;;;;13.62;87.57;100531.38;4966862;28;20061;-76
2023/09/30 07:43:06;;;;;;;5.93;2.42;;;;;;;13.64;87.79;100535.72;4967340;28;20503;-75
2023/09/30 07:45:40;;;;;;;7.40;2.28;;;;;;;13.64;91.33;100535.72;4961458;28;20058;-76
2023/09/30 07:48:09;;;;;;;5.13;2.40;;;;;;;13.61;91.15;100529.63;4962463;28;20054;-77
2023/09/30 07:50:39;;;;;;;6.72;2.55;;;;;;;13.64;91.19;100540.94;4965633;28;20066;-76
2023/09/30 07:53:12;;;;;;;4.55;1.83;;;;;;;13.65;91.98;100538.34;4961932;28;20061;-77
2023/09/30 07:55:40;;;;;;;4.30;2.55;;;;;;;13.62;89.27;100549.56;4966822;28;20129;-75
2023/09/30 07:58:09;;;;;;;4.93;2.35;;;;;;;13.62;89.11;100541.78;4966960;28;20058;-75
2023/09/30 08:00:39;;;;;;;3.95;2.00;;;;;;;13.65;88.12;100542.66;4959099;28;20169;-76
2023/09/30 08:03:08;;;;;;;4.30;2.50;;;;;;;13.65;87.20;100545.25;4960151;28;20062;-75
2023/09/30 08:05:37;;;;;;;7.10;3.08;;;;;;;13.66;87.15;100542.69;4964474;28;20039;-75
2023/09/30 08:08:06;;;;;;;4.05;1.92;;;;;;;13.58;89.29;100534.81;4965514;28;20739;-76
2023/09/30 08:10:36;;;;;;;5.97;2.55;;;;;;;13.65;88.92;100545.25;4965339;28;20046;-75
2023/09/30 08:13:05;;;;;;;3.35;2.05;;;;;;;13.64;90.54;100553.94;4965396;28;20510;-76
2023/09/30 08:15:43;;;;;;;6.55;2.42;;;;;;;13.64;89.00;100551.34;4958850;28;20046;-76
2023/09/30 08:18:18;;;;;;;5.28;2.20;;;;;;;13.61;87.94;100555.63;4969000;28;20061;-77
2023/09/30 08:20:49;;;;;;;5.57;2.45;;;;;;;13.59;88.07;100559.94;4968881;28;20055;-75
2023/09/30 08:23:17;;;;;;;4.78;2.15;;;;;;;13.58;88.10;100562.50;4969832;28;20628;-76
2023/09/30 08:25:46;;;;;;;6.45;2.45;;;;;;;13.54;85.15;100560.75;4969825;28;20557;-76
2023/09/30 08:28:15;;;;;;;3.03;2.15;;;;;;;13.54;86.65;100565.94;4965399;28;20569;-76
2023/09/30 08:30:46;;;;;;;4.03;2.35;;;;;;;13.51;86.14;100566.75;4966524;28;20059;-75
2023/09/30 08:33:14;;;;;;;3.38;2.15;;;;;;;13.51;86.25;100569.34;4972799;28;20113;-75
2023/09/30 08:35:44;;;;;;;4.85;2.55;;;;;;;13.50;85.60;100570.19;4967963;28;20118;-75
2023/09/30 08:38:12;;;;;;;3.47;1.95;;;;;;;13.50;85.45;100572.81;4968103;28;20046;-75
2023/09/30 08:40:41;;;;;;;5.78;2.80;;;;;;;13.50;87.01;100572.81;4980513;28;20140;-76
2023/09/30 08:43:13;;;;;;;14.40;2.53;;;;;;;13.49;85.79;100583.16;4970903;28;20043;-75
2023/09/30 08:45:45;;;;;;;5.28;2.60;;;;;;;13.47;86.46;100584.88;4969125;28;20419;-75
2023/09/30 08:48:14;;;;;;;3.05;1.98;;;;;;;13.44;86.27;100579.63;4970113;28;20042;-75
2023/09/30 08:50:44;;;;;;;4.75;2.65;;;;;;;13.44;85.99;100583.09;4970344;28;20089;-76
2023/09/30 08:53:16;;;;;;;6.93;2.60;;;;;;;13.42;84.85;100584.78;4968158;28;20057;-75
2023/09/30 08:55:47;;;;;;;5.18;2.42;;;;;;;13.41;85.29;100589.13;4964682;28;20102;-75
2023/09/30 08:58:17;;;;;;;3.88;2.08;;;;;;;13.41;86.63;100596.06;4965516;28;20134;-76
2023/09/30 09:00:47;;;;;;;5.13;1.80;;;;;;;13.39;84.96;100593.44;4968999;28;20055;-75
2023/09/30 09:03:23;;;;;;;5.13;2.25;;;;;;;13.38;83.21;100590.81;4966825;28;20043;-75
2023/09/30 09:05:57;;;;;;;4.57;2.70;;;;;;;13.36;82.80;100595.13;4961989;28;20043;-76
2023/09/30 09:08:27;;;;;;;4.80;2.42;;;;;;;13.34;84.38;100592.50;4965993;28;20081;-76
2023/09/30 09:11:05;;;;;;;5.70;2.45;;;;;;;13.33;83.39;100593.34;4965134;28;20121;-75
2023/09/30 09:13:50;;;;;;;5.40;2.55;;;;;;;13.33;83.51;100589.84;4974386;28;20077;-76
2023/09/30 09:16:21;;;;;;;3.72;2.15;;;;;;;13.31;85.40;100594.16;4969938;28;20046;-76
2023/09/30 09:18:49;;;;;;;5.05;2.22;;;;;;;13.28;87.60;100594.13;4969394;28;20059;-75
2023/09/30 09:21:20;;;;;;;5.32;2.40;;;;;;;13.23;89.09;100590.53;4969252;28;20521;-75
2023/09/30 09:23:50;;;;;;;6.82;1.98;;;;;;;13.23;89.16;100595.75;4968374;28;20061;-75
2023/09/30 09:26:27;;;;;;;5.80;2.42;;;;;;;13.21;88.82;100590.50;4964862;28;20488;-75
2023/09/30 09:28:59;;;;;;;5.43;2.03;;;;;;;13.19;87.03;100595.69;4969407;28;20484;-76
2023/09/30 09:31:30;;;;;;;4.93;2.45;;;;;;;13.16;87.63;100595.63;4968886;28;20097;-76
2023/09/30 09:33:59;;;;;;;4.65;2.47;;;;;;;13.13;87.76;100594.72;4966296;28;20572;-75
2023/09/30 09:36:41;;;;;;;3.45;2.33;;;;;;;13.11;85.67;100589.50;4967304;28;20073;-75
2023/09/30 09:39:12;;;;;;;5.40;2.38;;;;;;;13.09;84.61;100593.78;4968822;28;20138;-76
2023/09/30 09:41:52;;;;;;;3.47;2.47;;;;;;;13.09;80.93;100588.59;4965293;28;20098;-75
2023/09/30 09:44:22;;;;;;;5.03;2.47;;;;;;;13.08;83.19;100594.66;4967488;28;20117;-76
2023/09/30 09:46:53;;;;;;;5.43;2.58;;;;;;;13.07;83.92;100585.09;4970449;28;20142;-78
2023/09/30 09:49:26;;;;;;;2.63;1.85;;;;;;;13.05;80.60;100591.09;4967113;28;20055;-77
2023/09/30 09:51:55;;;;;;;5.88;2.40;;;;;;;13.00;81.78;100588.44;4967978;28;20125;-75
2023/09/30 09:54:26;;;;;;;6.20;2.45;;;;;;;13.02;82.98;100589.34;4967232;28;20054;-76
2023/09/30 09:56:58;;;;;;;5.28;2.88;;;;;;;13.02;82.49;100591.94;4965529;28;20648;-77
2023/09/30 09:59:29;;;;;;;4.20;2.33;;;;;;;12.95;82.24;100590.09;4967224;28;20592;-77
2023/09/30 10:02:02;;;;;;;3.53;1.92;;;;;;;12.98;83.55;100595.31;4960387;28;20051;-75
2023/09/30 10:04:32;;;;;;;4.05;1.92;;;;;;;12.97;83.44;100598.78;4966997;28;20062;-77
2023/09/30 10:07:03;;;;;;;5.72;2.55;;;;;;;12.97;82.60;100596.19;4967946;28;20134;-78
2023/09/30 10:09:36;;;;;;;4.70;2.60;;;;;;;12.96;81.40;100602.22;4967778;28;20086;-77
2023/09/30 10:12:08;;;;;;;5.00;2.60;;;;;;;12.94;81.64;100599.59;4969665;28;20054;-79
2023/09/30 10:14:37;;;;;;;4.90;2.10;;;;;;;12.92;81.98;100597.84;4967055;28;20109;-80
2023/09/30 10:17:11;;;;;;;3.63;2.05;;;;;;;12.89;82.34;100600.34;4969072;28;20137;-78
2023/09/30 10:20:08;;;;;;;5.63;2.20;;;;;;;12.85;82.61;100593.34;4969903;28;20058;-76
2023/09/30 10:22:36;;;;;;;8.02;2.65;;;;;;;12.84;82.74;100596.81;4961216;28;20055;-77
2023/09/30 10:25:39;;;;;;;5.32;2.22;;;;;;;12.79;83.23;100594.13;4969575;28;20049;-75
2023/09/30 10:28:34;;;;;;;3.28;1.95;;;;;;;12.74;83.41;100596.66;4976015;28;20078;-79
2023/09/30 10:31:19;;;;;;;4.05;2.17;;;;;;;12.68;83.26;100590.47;4968554;28;20058;-76
2023/09/30 10:34:23;;;;;;;8.68;2.42;;;;;;;12.67;82.99;100599.13;4967866;28;20138;-76
2023/09/30 10:36:52;;;;;;;4.03;2.20;;;;;;;12.63;82.72;100592.97;4952805;28;20504;-78
2023/09/30 10:39:59;;;;;;;5.22;2.35;;;;;;;12.59;83.04;100596.34;4972395;28;20063;-79
2023/09/30 10:42:49;;;;;;;5.88;2.42;;;;;;;12.54;84.10;100598.88;4945629;28;20063;-79
2023/09/30 10:45:46;;;;;;;3.55;2.22;;;;;;;12.53;83.78;100599.72;4970282;28;20054;-77
2023/09/30 10:48:37;;;;;;;4.68;2.25;;;;;;;12.53;85.71;100611.84;4964177;28;20109;-76
2023/09/30 10:51:21;;;;;;;8.25;2.80;;;;;;;12.50;84.84;100604.84;4963197;28;20054;-75
2023/09/30 10:53:56;;;;;;;4.28;2.50;;;;;;;12.48;85.85;100608.25;4968245;28;20065;-77
2023/09/30 10:56:27;;;;;;;3.78;2.45;;;;;;;12.44;86.38;100616.81;4968305;28;20051;-77
2023/09/30 10:58:56;;;;;;;8.88;2.53;;;;;;;12.44;86.49;100611.63;4972439;28;20073;-76
2023/09/30 11:01:25;;;;;;;5.55;2.72;;;;;;;12.41;86.06;100616.78;4966071;28;20089;-76
2023/09/30 11:04:04;;;;;;;3.75;2.15;;;;;;;12.40;86.47;100608.13;4967708;28;20042;-76
2023/09/30 11:06:35;;;;;;;4.63;2.35;;;;;;;12.41;86.65;100617.63;4969817;28;20054;-76
2023/09/30 11:09:16;;;;;;;2.85;2.30;;;;;;;12.41;86.46;100614.16;4969727;28;20693;-76
2023/09/30 11:11:48;;;;;;;5.70;1.90;;;;;;;12.42;86.96;100622.00;4967689;28;20054;-76
2023/09/30 11:14:26;;;;;;;6.70;2.53;;;;;;;12.39;86.29;100618.44;4967487;28;20441;-77
2023/09/30 11:16:56;;;;;;;6.78;2.40;;;;;;;12.38;86.09;100627.09;4953951;28;20058;-77
2023/09/30 11:19:25;;;;;;;4.72;2.78;;;;;;;12.38;86.38;100627.09;4970040;28;20146;-78
2023/09/30 11:21:58;;;;;;;4.90;2.60;;;;;;;12.39;85.09;100626.25;4958933;28;20070;-75
2023/09/30 11:24:28;;;;;;;3.55;2.08;;;;;;;12.38;85.53;100638.34;4961573;28;20138;-76
2023/09/30 11:26:57;;;;;;;3.40;1.92;;;;;;;12.38;84.77;100638.34;4966499;28;20054;-75
2023/09/30 11:29:26;;;;;;;4.57;2.22;;;;;;;12.38;85.83;100640.06;4966916;28;20054;-75
2023/09/30 11:31:57;;;;;;;4.47;2.38;;;;;;;12.36;87.19;100635.72;4963223;28;20054;-76
2023/09/30 11:34:35;;;;;;;3.17;1.85;;;;;;;12.32;87.16;100640.81;4964871;28;20050;-75
2023/09/30 11:37:05;;;;;;;4.60;2.30;;;;;;;12.29;87.66;100633.84;4965189;28;20125;-75
2023/09/30 11:39:34;;;;;;;3.65;2.42;;;;;;;12.28;86.27;100642.47;4967729;28;20110;-75
2023/09/30 11:42:04;;;;;;;5.68;2.67;;;;;;;12.28;85.49;100637.28;4961452;28;20138;-75